Somerset Center, Michigan
Current Conditions -  °F | °C
As of 1:14 PM on Wednesday 28 Jan 2015 (Local Time) from KJYM Reporting Station
Clear Clear  
Wind Chill: 19°   Ceiling: Unl
Heat Index: 26°   Visibility: 10mi
Dew Point:   Wind: 6mph
Humidity: 47%   Direction: 170°S
Pressure: 30.26"   Gusts: NA
Location:  42.05°N, 84.41°W
Report Text: KJYM 281814Z AUTO 17005KT 10SM CLR M03/M13 A3026 RMK AO2 T10331133
Loading
Personal Weather Stations






























Interactive Weather Map New forecast layout! Learn more

10-Day Weather Forecast

Advertisements
Track Severe Weather on mobile